KMKO/MKO METAR and TAF weather

Enter ICAO airport designator
Station Type Date Time Source
KMKO METAR 2020/07/10 20:53 UTC NOAA

KMKO 102053Z AUTO VRB04KT 10SM CLR 28/22 A3004 RMK AO2 SLP163 60019 T02780222 55050


Station Type Date Time Source
KMKO Decoded METAR 2020/07/10 20:53 UTC NOAA

MUSKOGEE DAVIS FIELD, OK, United States (KMKO) 35-39N 95-22W 185M
Jul 10, 2020 - 04:53 PM EDT / 2020.07.10 2053 UTC
Wind: Variable at 5 MPH (4 KT):0
Visibility: 10 mile(s):0
Sky conditions: clear
Temperature: 82.0 F (27.8 C)
Dew Point: 72.0 F (22.2 C)
Relative Humidity: 71%
Pressure (altimeter): 30.04 in. Hg (1017 hPa)
Pressure tendency: 0.15 inches (5.0 hPa) lower than three hours ago
ob: KMKO 102053Z AUTO VRB04KT 10SM CLR 28/22 A3004 RMK AO2 SLP163 60019 T02780222 55050
cycle: 21

Station Type Date Time Source
KMKO TAF UTC NOAA

Error!

Example: see airport list